sensor_id;sensor_type;location;lat;lon;timestamp;temperature;humidity
21271;DHT22;10795;50.796;3.860;2022-07-29T00:02:26;19.80;99.90
21271;DHT22;10795;50.796;3.860;2022-07-29T00:04:51;19.70;99.90
21271;DHT22;10795;50.796;3.860;2022-07-29T00:07:18;19.50;99.90
21271;DHT22;10795;50.796;3.860;2022-07-29T00:09:43;19.30;99.90
21271;DHT22;10795;50.796;3.860;2022-07-29T00:12:09;19.20;99.90
21271;DHT22;10795;50.796;3.860;2022-07-29T00:14:35;19.00;99.90
21271;DHT22;10795;50.796;3.860;2022-07-29T00:17:01;19.00;99.90
21271;DHT22;10795;50.796;3.860;2022-07-29T00:19:26;18.90;99.90
21271;DHT22;10795;50.796;3.860;2022-07-29T00:21:52;18.80;99.90
21271;DHT22;10795;50.796;3.860;2022-07-29T00:24:18;19.00;99.90
21271;DHT22;10795;50.796;3.860;2022-07-29T00:26:44;18.70;99.90
21271;DHT22;10795;50.796;3.860;2022-07-29T00:29:09;18.70;99.90
21271;DHT22;10795;50.796;3.860;2022-07-29T00:31:35;18.60;99.90
21271;DHT22;10795;50.796;3.860;2022-07-29T00:34:01;18.50;99.90
21271;DHT22;10795;50.796;3.860;2022-07-29T00:36:28;18.40;99.90
21271;DHT22;10795;50.796;3.860;2022-07-29T00:38:53;18.50;99.90
21271;DHT22;10795;50.796;3.860;2022-07-29T00:41:19;18.50;99.90
21271;DHT22;10795;50.796;3.860;2022-07-29T00:43:45;18.50;99.90
21271;DHT22;10795;50.796;3.860;2022-07-29T00:46:11;18.50;99.90
21271;DHT22;10795;50.796;3.860;2022-07-29T00:48:37;18.70;99.90
21271;DHT22;10795;50.796;3.860;2022-07-29T00:51:05;18.60;99.90
21271;DHT22;10795;50.796;3.860;2022-07-29T00:53:31;18.70;99.90
21271;DHT22;10795;50.796;3.860;2022-07-29T00:55:58;18.60;99.90
21271;DHT22;10795;50.796;3.860;2022-07-29T00:58:24;18.30;99.90
21271;DHT22;10795;50.796;3.860;2022-07-29T01:00:52;18.50;99.90
21271;DHT22;10795;50.796;3.860;2022-07-29T01:03:18;18.20;99.90
21271;DHT22;10795;50.796;3.860;2022-07-29T01:05:45;18.30;99.90
21271;DHT22;10795;50.796;3.860;2022-07-29T01:08:13;18.30;99.90
21271;DHT22;10795;50.796;3.860;2022-07-29T01:10:40;18.60;99.90
21271;DHT22;10795;50.796;3.860;2022-07-29T01:13:06;18.20;99.90
21271;DHT22;10795;50.796;3.860;2022-07-29T01:15:34;18.20;99.90
21271;DHT22;10795;50.796;3.860;2022-07-29T01:18:09;17.90;99.90
21271;DHT22;10795;50.796;3.860;2022-07-29T01:21:00;17.70;99.90
21271;DHT22;10795;50.796;3.860;2022-07-29T01:29:26;17.30;99.90
21271;DHT22;10795;50.796;3.860;2022-07-29T01:39:37;17.00;99.90
21271;DHT22;10795;50.796;3.860;2022-07-29T01:42:27;16.80;99.90
21271;DHT22;10795;50.796;3.860;2022-07-29T01:45:18;16.80;99.90
21271;DHT22;10795;50.796;3.860;2022-07-29T01:48:04;16.60;99.90
21271;DHT22;10795;50.796;3.860;2022-07-29T01:50:38;16.50;99.90
21271;DHT22;10795;50.796;3.860;2022-07-29T01:53:08;16.50;99.90
21271;DHT22;10795;50.796;3.860;2022-07-29T01:55:38;16.50;99.90
21271;DHT22;10795;50.796;3.860;2022-07-29T01:58:05;16.50;99.90
21271;DHT22;10795;50.796;3.860;2022-07-29T02:00:33;16.40;99.90
21271;DHT22;10795;50.796;3.860;2022-07-29T02:03:03;16.30;99.90
21271;DHT22;10795;50.796;3.860;2022-07-29T02:05:32;16.30;99.90
21271;DHT22;10795;50.796;3.860;2022-07-29T02:08:00;16.60;99.90
21271;DHT22;10795;50.796;3.860;2022-07-29T02:10:28;16.50;99.90
21271;DHT22;10795;50.796;3.860;2022-07-29T02:12:56;16.40;99.90
21271;DHT22;10795;50.796;3.860;2022-07-29T02:15:28;16.30;99.90
21271;DHT22;10795;50.796;3.860;2022-07-29T02:18:00;16.20;99.90
21271;DHT22;10795;50.796;3.860;2022-07-29T02:20:27;16.20;99.90
21271;DHT22;10795;50.796;3.860;2022-07-29T02:22:55;16.30;99.90
21271;DHT22;10795;50.796;3.860;2022-07-29T02:25:22;16.30;99.90
21271;DHT22;10795;50.796;3.860;2022-07-29T02:27:50;16.20;99.90
21271;DHT22;10795;50.796;3.860;2022-07-29T02:30:17;16.20;99.90
21271;DHT22;10795;50.796;3.860;2022-07-29T02:32:45;16.10;99.90
21271;DHT22;10795;50.796;3.860;2022-07-29T02:35:14;16.20;99.90
21271;DHT22;10795;50.796;3.860;2022-07-29T02:37:43;16.20;99.90
21271;DHT22;10795;50.796;3.860;2022-07-29T02:40:11;16.30;99.90
21271;DHT22;10795;50.796;3.860;2022-07-29T02:42:42;16.10;99.90
21271;DHT22;10795;50.796;3.860;2022-07-29T02:45:10;16.10;99.90
21271;DHT22;10795;50.796;3.860;2022-07-29T02:47:43;16.20;99.90
21271;DHT22;10795;50.796;3.860;2022-07-29T02:50:17;16.10;99.90
21271;DHT22;10795;50.796;3.860;2022-07-29T02:53:04;16.00;99.90
21271;DHT22;10795;50.796;3.860;2022-07-29T02:55:34;15.90;99.90
21271;DHT22;10795;50.796;3.860;2022-07-29T03:00:34;16.00;99.90
21271;DHT22;10795;50.796;3.860;2022-07-29T03:03:04;15.90;99.90
21271;DHT22;10795;50.796;3.860;2022-07-29T03:05:32;16.00;99.90
21271;DHT22;10795;50.796;3.860;2022-07-29T03:08:03;16.00;99.90
21271;DHT22;10795;50.796;3.860;2022-07-29T03:10:30;15.90;99.90
21271;DHT22;10795;50.796;3.860;2022-07-29T03:12:57;15.80;99.90
21271;DHT22;10795;50.796;3.860;2022-07-29T03:15:23;15.80;99.90
21271;DHT22;10795;50.796;3.860;2022-07-29T03:17:50;15.80;99.90
21271;DHT22;10795;50.796;3.860;2022-07-29T03:20:17;15.80;99.90
21271;DHT22;10795;50.796;3.860;2022-07-29T03:22:44;15.80;99.90
21271;DHT22;10795;50.796;3.860;2022-07-29T03:25:16;15.60;99.90
21271;DHT22;10795;50.796;3.860;2022-07-29T03:27:43;15.40;99.90
21271;DHT22;10795;50.796;3.860;2022-07-29T03:30:10;15.20;99.90
21271;DHT22;10795;50.796;3.860;2022-07-29T03:32:36;15.20;99.90
21271;DHT22;10795;50.796;3.860;2022-07-29T03:35:02;15.40;99.90
21271;DHT22;10795;50.796;3.860;2022-07-29T03:37:28;15.30;99.90
21271;DHT22;10795;50.796;3.860;2022-07-29T03:39:57;15.10;99.90
21271;DHT22;10795;50.796;3.860;2022-07-29T03:42:30;15.40;99.90
21271;DHT22;10795;50.796;3.860;2022-07-29T03:44:58;15.20;99.90
21271;DHT22;10795;50.796;3.860;2022-07-29T03:47:27;15.10;99.90
21271;DHT22;10795;50.796;3.860;2022-07-29T03:49:59;15.00;99.90
21271;DHT22;10795;50.796;3.860;2022-07-29T03:52:25;15.30;99.90
21271;DHT22;10795;50.796;3.860;2022-07-29T03:54:51;15.30;99.90
21271;DHT22;10795;50.796;3.860;2022-07-29T03:57:20;15.20;99.90
21271;DHT22;10795;50.796;3.860;2022-07-29T03:59:50;15.10;99.90
21271;DHT22;10795;50.796;3.860;2022-07-29T04:02:16;15.00;99.90
21271;DHT22;10795;50.796;3.860;2022-07-29T04:04:42;15.00;99.90
21271;DHT22;10795;50.796;3.860;2022-07-29T04:07:14;14.90;99.90
21271;DHT22;10795;50.796;3.860;2022-07-29T04:09:41;14.90;99.90
21271;DHT22;10795;50.796;3.860;2022-07-29T04:12:07;14.70;99.90
21271;DHT22;10795;50.796;3.860;2022-07-29T04:14:34;14.80;99.90
21271;DHT22;10795;50.796;3.860;2022-07-29T04:17:01;14.90;99.90
21271;DHT22;10795;50.796;3.860;2022-07-29T04:19:27;14.90;99.90
21271;DHT22;10795;50.796;3.860;2022-07-29T04:21:53;15.00;99.90
21271;DHT22;10795;50.796;3.860;2022-07-29T04:24:19;14.90;99.90
21271;DHT22;10795;50.796;3.860;2022-07-29T04:26:48;14.90;99.90
21271;DHT22;10795;50.796;3.860;2022-07-29T04:29:14;14.90;99.90
21271;DHT22;10795;50.796;3.860;2022-07-29T04:31:43;15.00;99.90
21271;DHT22;10795;50.796;3.860;2022-07-29T04:34:09;15.10;99.90
21271;DHT22;10795;50.796;3.860;2022-07-29T04:36:35;15.00;99.90
21271;DHT22;10795;50.796;3.860;2022-07-29T04:39:01;15.00;99.90
21271;DHT22;10795;50.796;3.860;2022-07-29T04:41:28;14.70;99.90
21271;DHT22;10795;50.796;3.860;2022-07-29T04:43:54;14.80;99.90
21271;DHT22;10795;50.796;3.860;2022-07-29T04:46:19;14.90;99.90
21271;DHT22;10795;50.796;3.860;2022-07-29T04:48:46;14.80;99.90
21271;DHT22;10795;50.796;3.860;2022-07-29T04:51:16;14.90;99.90
21271;DHT22;10795;50.796;3.860;2022-07-29T04:53:42;14.90;99.90
21271;DHT22;10795;50.796;3.860;2022-07-29T04:56:08;14.70;99.90
21271;DHT22;10795;50.796;3.860;2022-07-29T04:58:34;14.70;99.90
21271;DHT22;10795;50.796;3.860;2022-07-29T05:01:00;14.90;99.90
21271;DHT22;10795;50.796;3.860;2022-07-29T05:03:26;15.00;99.90
21271;DHT22;10795;50.796;3.860;2022-07-29T05:05:52;14.90;99.90
21271;DHT22;10795;50.796;3.860;2022-07-29T05:08:18;14.90;99.90
21271;DHT22;10795;50.796;3.860;2022-07-29T05:10:43;15.00;99.90
21271;DHT22;10795;50.796;3.860;2022-07-29T05:13:09;14.80;99.90
21271;DHT22;10795;50.796;3.860;2022-07-29T05:15:35;14.80;99.90
21271;DHT22;10795;50.796;3.860;2022-07-29T05:18:01;15.10;99.90
21271;DHT22;10795;50.796;3.860;2022-07-29T05:20:28;15.30;99.90
21271;DHT22;10795;50.796;3.860;2022-07-29T05:22:59;15.50;99.90
21271;DHT22;10795;50.796;3.860;2022-07-29T05:25:29;15.80;99.90
21271;DHT22;10795;50.796;3.860;2022-07-29T05:27:56;16.00;99.90
21271;DHT22;10795;50.796;3.860;2022-07-29T05:30:22;16.10;99.90
21271;DHT22;10795;50.796;3.860;2022-07-29T05:32:47;16.20;99.90
21271;DHT22;10795;50.796;3.860;2022-07-29T05:35:14;16.50;99.90
21271;DHT22;10795;50.796;3.860;2022-07-29T05:37:40;16.80;99.90
21271;DHT22;10795;50.796;3.860;2022-07-29T05:40:07;16.80;99.90
21271;DHT22;10795;50.796;3.860;2022-07-29T05:42:33;17.00;99.90
21271;DHT22;10795;50.796;3.860;2022-07-29T05:44:59;17.20;99.90
21271;DHT22;10795;50.796;3.860;2022-07-29T05:47:25;17.40;99.90
21271;DHT22;10795;50.796;3.860;2022-07-29T05:49:51;17.70;99.90
21271;DHT22;10795;50.796;3.860;2022-07-29T05:52:18;18.00;99.90
21271;DHT22;10795;50.796;3.860;2022-07-29T05:54:44;18.60;99.90
21271;DHT22;10795;50.796;3.860;2022-07-29T05:57:20;19.00;99.90
21271;DHT22;10795;50.796;3.860;2022-07-29T05:59:46;18.80;99.90
21271;DHT22;10795;50.796;3.860;2022-07-29T06:02:13;19.00;99.90
21271;DHT22;10795;50.796;3.860;2022-07-29T06:04:39;19.40;99.90
21271;DHT22;10795;50.796;3.860;2022-07-29T06:07:05;19.70;99.90
21271;DHT22;10795;50.796;3.860;2022-07-29T06:09:32;20.20;99.90
21271;DHT22;10795;50.796;3.860;2022-07-29T06:11:57;20.70;99.90
21271;DHT22;10795;50.796;3.860;2022-07-29T06:14:24;20.80;99.90
21271;DHT22;10795;50.796;3.860;2022-07-29T06:16:50;20.60;99.90
21271;DHT22;10795;50.796;3.860;2022-07-29T06:19:15;20.80;99.90
21271;DHT22;10795;50.796;3.860;2022-07-29T06:21:45;21.00;99.90
21271;DHT22;10795;50.796;3.860;2022-07-29T06:24:12;21.40;99.90
21271;DHT22;10795;50.796;3.860;2022-07-29T06:26:41;21.20;99.90
21271;DHT22;10795;50.796;3.860;2022-07-29T06:29:08;21.30;99.90
21271;DHT22;10795;50.796;3.860;2022-07-29T06:31:36;21.60;99.90
21271;DHT22;10795;50.796;3.860;2022-07-29T06:34:02;21.20;99.90
21271;DHT22;10795;50.796;3.860;2022-07-29T06:36:28;21.50;99.90
21271;DHT22;10795;50.796;3.860;2022-07-29T06:38:53;21.80;99.90
21271;DHT22;10795;50.796;3.860;2022-07-29T06:41:19;22.00;99.90
21271;DHT22;10795;50.796;3.860;2022-07-29T06:43:45;22.10;99.90
21271;DHT22;10795;50.796;3.860;2022-07-29T06:46:13;22.50;99.90
21271;DHT22;10795;50.796;3.860;2022-07-29T06:48:40;22.40;99.90
21271;DHT22;10795;50.796;3.860;2022-07-29T06:51:08;22.90;99.90
21271;DHT22;10795;50.796;3.860;2022-07-29T06:53:34;23.30;99.90
21271;DHT22;10795;50.796;3.860;2022-07-29T06:56:01;23.40;99.90
21271;DHT22;10795;50.796;3.860;2022-07-29T06:58:28;23.30;99.90
21271;DHT22;10795;50.796;3.860;2022-07-29T07:00:54;23.20;99.90
21271;DHT22;10795;50.796;3.860;2022-07-29T07:03:21;23.80;99.90
21271;DHT22;10795;50.796;3.860;2022-07-29T07:05:48;23.80;99.90
21271;DHT22;10795;50.796;3.860;2022-07-29T07:08:13;23.70;99.90
21271;DHT22;10795;50.796;3.860;2022-07-29T07:10:42;23.70;99.90
21271;DHT22;10795;50.796;3.860;2022-07-29T07:13:08;24.10;99.90
21271;DHT22;10795;50.796;3.860;2022-07-29T07:15:35;23.90;99.90
21271;DHT22;10795;50.796;3.860;2022-07-29T07:18:02;24.70;99.90
21271;DHT22;10795;50.796;3.860;2022-07-29T07:20:28;25.00;99.90
21271;DHT22;10795;50.796;3.860;2022-07-29T07:22:53;25.20;99.90
21271;DHT22;10795;50.796;3.860;2022-07-29T07:25:19;25.30;99.90
21271;DHT22;10795;50.796;3.860;2022-07-29T07:27:45;25.60;99.90
21271;DHT22;10795;50.796;3.860;2022-07-29T07:30:14;25.60;99.90
21271;DHT22;10795;50.796;3.860;2022-07-29T07:32:39;25.70;99.90
21271;DHT22;10795;50.796;3.860;2022-07-29T07:35:07;25.80;99.90
21271;DHT22;10795;50.796;3.860;2022-07-29T07:37:33;25.90;99.90
21271;DHT22;10795;50.796;3.860;2022-07-29T07:39:59;26.20;99.90
21271;DHT22;10795;50.796;3.860;2022-07-29T07:42:25;26.10;99.90
21271;DHT22;10795;50.796;3.860;2022-07-29T07:44:50;26.20;99.90
21271;DHT22;10795;50.796;3.860;2022-07-29T07:47:16;26.60;99.90
21271;DHT22;10795;50.796;3.860;2022-07-29T07:49:46;26.80;99.90
21271;DHT22;10795;50.796;3.860;2022-07-29T07:52:14;26.40;99.90
21271;DHT22;10795;50.796;3.860;2022-07-29T07:54:40;26.50;99.90
21271;DHT22;10795;50.796;3.860;2022-07-29T07:57:05;27.60;99.90
21271;DHT22;10795;50.796;3.860;2022-07-29T07:59:32;27.90;99.90
21271;DHT22;10795;50.796;3.860;2022-07-29T08:01:57;27.80;99.90
21271;DHT22;10795;50.796;3.860;2022-07-29T08:04:23;27.50;99.90
21271;DHT22;10795;50.796;3.860;2022-07-29T08:06:50;27.40;99.90
21271;DHT22;10795;50.796;3.860;2022-07-29T08:09:16;28.10;99.90
21271;DHT22;10795;50.796;3.860;2022-07-29T08:11:42;28.40;99.90
21271;DHT22;10795;50.796;3.860;2022-07-29T08:14:07;28.90;99.90
21271;DHT22;10795;50.796;3.860;2022-07-29T08:16:33;28.20;99.90
21271;DHT22;10795;50.796;3.860;2022-07-29T08:18:59;27.20;99.90
21271;DHT22;10795;50.796;3.860;2022-07-29T08:21:25;26.90;99.90
21271;DHT22;10795;50.796;3.860;2022-07-29T08:23:51;27.70;99.90
21271;DHT22;10795;50.796;3.860;2022-07-29T08:26:41;28.10;99.90
21271;DHT22;10795;50.796;3.860;2022-07-29T08:29:07;29.10;99.90
21271;DHT22;10795;50.796;3.860;2022-07-29T08:31:33;28.70;99.90
21271;DHT22;10795;50.796;3.860;2022-07-29T08:33:59;29.00;99.90
21271;DHT22;10795;50.796;3.860;2022-07-29T08:36:25;28.70;99.90
21271;DHT22;10795;50.796;3.860;2022-07-29T08:38:52;29.00;99.90
21271;DHT22;10795;50.796;3.860;2022-07-29T08:41:21;29.00;99.90
21271;DHT22;10795;50.796;3.860;2022-07-29T08:43:48;29.80;99.90
21271;DHT22;10795;50.796;3.860;2022-07-29T08:46:15;30.20;99.90
21271;DHT22;10795;50.796;3.860;2022-07-29T08:48:42;30.20;99.90
21271;DHT22;10795;50.796;3.860;2022-07-29T08:51:13;30.00;99.90
21271;DHT22;10795;50.796;3.860;2022-07-29T08:53:42;30.20;99.90
21271;DHT22;10795;50.796;3.860;2022-07-29T08:56:11;30.30;99.90
21271;DHT22;10795;50.796;3.860;2022-07-29T08:58:39;31.20;99.90
21271;DHT22;10795;50.796;3.860;2022-07-29T09:01:05;31.20;99.90
21271;DHT22;10795;50.796;3.860;2022-07-29T09:03:33;31.70;99.90
21271;DHT22;10795;50.796;3.860;2022-07-29T09:06:01;31.60;99.90
21271;DHT22;10795;50.796;3.860;2022-07-29T09:08:27;31.70;99.90
21271;DHT22;10795;50.796;3.860;2022-07-29T09:10:54;31.90;99.90
21271;DHT22;10795;50.796;3.860;2022-07-29T09:13:22;31.90;99.90
21271;DHT22;10795;50.796;3.860;2022-07-29T09:15:48;32.30;99.90
21271;DHT22;10795;50.796;3.860;2022-07-29T09:18:42;32.00;99.90
21271;DHT22;10795;50.796;3.860;2022-07-29T09:21:11;32.60;99.90
21271;DHT22;10795;50.796;3.860;2022-07-29T09:24:04;32.80;99.90
21271;DHT22;10795;50.796;3.860;2022-07-29T09:26:32;32.20;99.90
21271;DHT22;10795;50.796;3.860;2022-07-29T09:28:59;32.20;99.90
21271;DHT22;10795;50.796;3.860;2022-07-29T09:31:37;33.10;99.90
21271;DHT22;10795;50.796;3.860;2022-07-29T09:34:04;33.70;99.90
21271;DHT22;10795;50.796;3.860;2022-07-29T09:36:30;33.50;99.90
21271;DHT22;10795;50.796;3.860;2022-07-29T09:39:00;34.10;99.90
21271;DHT22;10795;50.796;3.860;2022-07-29T09:41:27;34.40;99.90
21271;DHT22;10795;50.796;3.860;2022-07-29T09:43:54;33.70;99.90
21271;DHT22;10795;50.796;3.860;2022-07-29T09:46:20;33.70;99.90
21271;DHT22;10795;50.796;3.860;2022-07-29T09:49:12;33.90;99.90
21271;DHT22;10795;50.796;3.860;2022-07-29T09:51:38;34.10;99.90
21271;DHT22;10795;50.796;3.860;2022-07-29T09:54:23;34.30;99.90
21271;DHT22;10795;50.796;3.860;2022-07-29T09:56:53;32.90;99.90
21271;DHT22;10795;50.796;3.860;2022-07-29T09:59:19;32.80;99.90
21271;DHT22;10795;50.796;3.860;2022-07-29T10:01:48;33.10;99.90
21271;DHT22;10795;50.796;3.860;2022-07-29T10:04:15;32.50;99.90
21271;DHT22;10795;50.796;3.860;2022-07-29T10:07:08;32.90;99.90
21271;DHT22;10795;50.796;3.860;2022-07-29T10:09:34;32.10;99.90
21271;DHT22;10795;50.796;3.860;2022-07-29T10:14:31;32.50;99.90
21271;DHT22;10795;50.796;3.860;2022-07-29T10:17:01;32.90;99.90
21271;DHT22;10795;50.796;3.860;2022-07-29T10:19:31;33.30;99.90
21271;DHT22;10795;50.796;3.860;2022-07-29T10:22:02;33.70;99.90
21271;DHT22;10795;50.796;3.860;2022-07-29T10:24:30;33.90;99.90
21271;DHT22;10795;50.796;3.860;2022-07-29T10:26:57;33.80;99.90
21271;DHT22;10795;50.796;3.860;2022-07-29T10:29:24;33.60;99.90
21271;DHT22;10795;50.796;3.860;2022-07-29T10:44:01;34.50;99.90
21271;DHT22;10795;50.796;3.860;2022-07-29T10:46:28;35.00;99.90
21271;DHT22;10795;50.796;3.860;2022-07-29T10:49:15;34.80;99.90
21271;DHT22;10795;50.796;3.860;2022-07-29T10:54:17;35.00;99.90
21271;DHT22;10795;50.796;3.860;2022-07-29T10:56:43;34.70;99.90
21271;DHT22;10795;50.796;3.860;2022-07-29T11:01:48;32.30;99.90
21271;DHT22;10795;50.796;3.860;2022-07-29T11:04:15;32.60;99.90
21271;DHT22;10795;50.796;3.860;2022-07-29T11:09:30;32.80;99.90
21271;DHT22;10795;50.796;3.860;2022-07-29T11:11:56;31.10;99.90
21271;DHT22;10795;50.796;3.860;2022-07-29T11:17:17;30.40;99.90
21271;DHT22;10795;50.796;3.860;2022-07-29T11:19:43;30.90;99.90
21271;DHT22;10795;50.796;3.860;2022-07-29T11:22:10;30.90;99.90
21271;DHT22;10795;50.796;3.860;2022-07-29T11:24:37;31.70;99.90
21271;DHT22;10795;50.796;3.860;2022-07-29T11:29:32;30.30;99.90
21271;DHT22;10795;50.796;3.860;2022-07-29T11:32:13;31.00;99.90
21271;DHT22;10795;50.796;3.860;2022-07-29T11:34:41;31.20;99.90
21271;DHT22;10795;50.796;3.860;2022-07-29T11:39:43;31.30;99.90
21271;DHT22;10795;50.796;3.860;2022-07-29T11:45:04;31.30;99.90
21271;DHT22;10795;50.796;3.860;2022-07-29T11:47:51;30.50;99.90
21271;DHT22;10795;50.796;3.860;2022-07-29T11:50:28;30.90;99.90
21271;DHT22;10795;50.796;3.860;2022-07-29T11:52:54;31.40;99.90
21271;DHT22;10795;50.796;3.860;2022-07-29T11:55:21;31.70;99.90
21271;DHT22;10795;50.796;3.860;2022-07-29T11:57:58;31.80;99.90
21271;DHT22;10795;50.796;3.860;2022-07-29T12:02:58;31.20;99.90
21271;DHT22;10795;50.796;3.860;2022-07-29T12:05:36;31.30;99.90
21271;DHT22;10795;50.796;3.860;2022-07-29T12:10:40;30.70;99.90
21271;DHT22;10795;50.796;3.860;2022-07-29T12:13:06;30.60;99.90
21271;DHT22;10795;50.796;3.860;2022-07-29T12:15:33;30.60;99.90
21271;DHT22;10795;50.796;3.860;2022-07-29T12:17:59;31.00;99.90
21271;DHT22;10795;50.796;3.860;2022-07-29T12:20:34;31.50;99.90
21271;DHT22;10795;50.796;3.860;2022-07-29T12:23:05;31.90;99.90
21271;DHT22;10795;50.796;3.860;2022-07-29T12:25:34;31.80;99.90
21271;DHT22;10795;50.796;3.860;2022-07-29T12:28:06;31.60;99.90
21271;DHT22;10795;50.796;3.860;2022-07-29T12:30:38;31.40;99.90
21271;DHT22;10795;50.796;3.860;2022-07-29T12:33:18;30.60;99.90
21271;DHT22;10795;50.796;3.860;2022-07-29T12:35:50;30.50;99.90
21271;DHT22;10795;50.796;3.860;2022-07-29T12:38:16;30.50;99.90
21271;DHT22;10795;50.796;3.860;2022-07-29T12:40:43;31.30;99.90
21271;DHT22;10795;50.796;3.860;2022-07-29T12:45:38;30.30;99.90
21271;DHT22;10795;50.796;3.860;2022-07-29T12:48:05;30.40;99.90
21271;DHT22;10795;50.796;3.860;2022-07-29T12:50:35;31.20;99.90
21271;DHT22;10795;50.796;3.860;2022-07-29T12:53:11;31.90;99.90
21271;DHT22;10795;50.796;3.860;2022-07-29T12:55:44;31.70;99.90
21271;DHT22;10795;50.796;3.860;2022-07-29T13:01:15;32.20;99.90
21271;DHT22;10795;50.796;3.860;2022-07-29T13:04:00;32.00;99.90
21271;DHT22;10795;50.796;3.860;2022-07-29T13:09:18;32.80;99.50
21271;DHT22;10795;50.796;3.860;2022-07-29T13:11:52;33.10;99.90
21271;DHT22;10795;50.796;3.860;2022-07-29T13:14:35;33.20;99.90
21271;DHT22;10795;50.796;3.860;2022-07-29T13:17:14;33.20;99.90
21271;DHT22;10795;50.796;3.860;2022-07-29T13:19:52;33.20;97.90
21271;DHT22;10795;50.796;3.860;2022-07-29T13:24:53;33.00;97.90
21271;DHT22;10795;50.796;3.860;2022-07-29T13:27:20;32.30;98.90
21271;DHT22;10795;50.796;3.860;2022-07-29T13:29:47;31.80;99.90
21271;DHT22;10795;50.796;3.860;2022-07-29T13:32:14;30.90;99.20
21271;DHT22;10795;50.796;3.860;2022-07-29T13:34:40;31.30;99.50
21271;DHT22;10795;50.796;3.860;2022-07-29T13:37:06;30.80;98.50
21271;DHT22;10795;50.796;3.860;2022-07-29T13:39:32;31.30;99.90
21271;DHT22;10795;50.796;3.860;2022-07-29T13:41:58;31.60;99.90
21271;DHT22;10795;50.796;3.860;2022-07-29T13:44:23;31.00;98.60
21271;DHT22;10795;50.796;3.860;2022-07-29T13:46:49;31.00;98.60
21271;DHT22;10795;50.796;3.860;2022-07-29T13:49:15;31.00;99.90
21271;DHT22;10795;50.796;3.860;2022-07-29T13:51:41;31.20;99.90
21271;DHT22;10795;50.796;3.860;2022-07-29T13:54:07;31.10;99.40
21271;DHT22;10795;50.796;3.860;2022-07-29T13:56:32;30.90;99.90
21271;DHT22;10795;50.796;3.860;2022-07-29T13:58:58;30.60;99.90
21271;DHT22;10795;50.796;3.860;2022-07-29T14:01:24;30.50;99.90
21271;DHT22;10795;50.796;3.860;2022-07-29T14:03:50;30.00;98.60
21271;DHT22;10795;50.796;3.860;2022-07-29T14:06:16;30.40;99.60
21271;DHT22;10795;50.796;3.860;2022-07-29T14:08:42;30.70;99.80
21271;DHT22;10795;50.796;3.860;2022-07-29T14:11:08;30.90;99.90
21271;DHT22;10795;50.796;3.860;2022-07-29T14:13:34;31.00;99.90
21271;DHT22;10795;50.796;3.860;2022-07-29T14:16:00;31.30;99.90
21271;DHT22;10795;50.796;3.860;2022-07-29T14:18:26;31.60;99.90
21271;DHT22;10795;50.796;3.860;2022-07-29T14:20:51;31.00;99.90
21271;DHT22;10795;50.796;3.860;2022-07-29T14:23:18;30.30;98.30
21271;DHT22;10795;50.796;3.860;2022-07-29T14:25:43;30.70;99.40
21271;DHT22;10795;50.796;3.860;2022-07-29T14:28:09;31.30;99.60
21271;DHT22;10795;50.796;3.860;2022-07-29T14:30:35;30.90;99.70
21271;DHT22;10795;50.796;3.860;2022-07-29T14:33:01;30.70;99.90
21271;DHT22;10795;50.796;3.860;2022-07-29T14:35:27;30.50;98.30
21271;DHT22;10795;50.796;3.860;2022-07-29T14:37:53;30.60;99.90
21271;DHT22;10795;50.796;3.860;2022-07-29T14:40:19;31.10;99.80
21271;DHT22;10795;50.796;3.860;2022-07-29T14:42:44;31.20;99.90
21271;DHT22;10795;50.796;3.860;2022-07-29T14:45:10;31.20;98.70
21271;DHT22;10795;50.796;3.860;2022-07-29T14:47:37;31.50;99.90
21271;DHT22;10795;50.796;3.860;2022-07-29T14:50:04;31.10;98.80
21271;DHT22;10795;50.796;3.860;2022-07-29T14:52:30;30.60;98.40
21271;DHT22;10795;50.796;3.860;2022-07-29T14:54:56;30.10;99.90
21271;DHT22;10795;50.796;3.860;2022-07-29T14:57:22;29.70;99.70
21271;DHT22;10795;50.796;3.860;2022-07-29T14:59:48;29.80;99.50
21271;DHT22;10795;50.796;3.860;2022-07-29T15:02:13;29.10;99.70
21271;DHT22;10795;50.796;3.860;2022-07-29T15:04:39;29.00;99.90
21271;DHT22;10795;50.796;3.860;2022-07-29T15:07:05;29.60;99.90
21271;DHT22;10795;50.796;3.860;2022-07-29T15:09:31;29.60;99.90
21271;DHT22;10795;50.796;3.860;2022-07-29T15:11:56;30.10;99.90
21271;DHT22;10795;50.796;3.860;2022-07-29T15:14:22;29.80;99.90
21271;DHT22;10795;50.796;3.860;2022-07-29T15:16:48;30.10;99.90
21271;DHT22;10795;50.796;3.860;2022-07-29T15:19:14;30.20;99.90
21271;DHT22;10795;50.796;3.860;2022-07-29T15:21:40;30.00;98.70
21271;DHT22;10795;50.796;3.860;2022-07-29T15:24:05;29.70;99.90
21271;DHT22;10795;50.796;3.860;2022-07-29T15:26:32;29.50;99.90
21271;DHT22;10795;50.796;3.860;2022-07-29T15:28:59;30.40;99.90
21271;DHT22;10795;50.796;3.860;2022-07-29T15:31:25;30.30;99.90
21271;DHT22;10795;50.796;3.860;2022-07-29T15:33:50;29.90;99.90
21271;DHT22;10795;50.796;3.860;2022-07-29T15:36:16;29.70;99.90
21271;DHT22;10795;50.796;3.860;2022-07-29T15:38:42;29.90;99.90
21271;DHT22;10795;50.796;3.860;2022-07-29T15:41:09;29.90;99.90
21271;DHT22;10795;50.796;3.860;2022-07-29T15:43:40;30.40;99.90
21271;DHT22;10795;50.796;3.860;2022-07-29T15:46:08;30.30;99.90
21271;DHT22;10795;50.796;3.860;2022-07-29T15:48:52;30.00;99.90
21271;DHT22;10795;50.796;3.860;2022-07-29T15:51:18;29.70;99.90
21271;DHT22;10795;50.796;3.860;2022-07-29T15:53:44;29.80;99.90
21271;DHT22;10795;50.796;3.860;2022-07-29T15:56:09;29.70;99.90
21271;DHT22;10795;50.796;3.860;2022-07-29T15:58:35;29.50;99.90
21271;DHT22;10795;50.796;3.860;2022-07-29T16:01:01;29.60;99.90
21271;DHT22;10795;50.796;3.860;2022-07-29T16:03:27;29.40;99.90
21271;DHT22;10795;50.796;3.860;2022-07-29T16:05:52;29.10;99.90
21271;DHT22;10795;50.796;3.860;2022-07-29T16:08:18;29.50;99.90
21271;DHT22;10795;50.796;3.860;2022-07-29T16:10:44;29.40;99.90
21271;DHT22;10795;50.796;3.860;2022-07-29T16:13:10;29.50;99.90
21271;DHT22;10795;50.796;3.860;2022-07-29T16:15:35;29.30;99.90
21271;DHT22;10795;50.796;3.860;2022-07-29T16:18:01;29.40;99.90
21271;DHT22;10795;50.796;3.860;2022-07-29T16:20:27;29.00;99.90
21271;DHT22;10795;50.796;3.860;2022-07-29T16:22:53;29.30;99.90
21271;DHT22;10795;50.796;3.860;2022-07-29T16:25:19;28.90;99.90
21271;DHT22;10795;50.796;3.860;2022-07-29T16:27:45;28.80;99.90
21271;DHT22;10795;50.796;3.860;2022-07-29T16:30:11;28.60;99.90
21271;DHT22;10795;50.796;3.860;2022-07-29T16:32:36;28.60;99.90
21271;DHT22;10795;50.796;3.860;2022-07-29T16:35:02;28.20;99.90
21271;DHT22;10795;50.796;3.860;2022-07-29T16:37:29;28.30;99.90
21271;DHT22;10795;50.796;3.860;2022-07-29T16:40:00;28.00;99.90
21271;DHT22;10795;50.796;3.860;2022-07-29T16:42:26;28.30;99.90